Healing Springs, North Carolina
Current Conditions -  °F | °C
As of 4:35 PM on Saturday 25 Oct 2014 (Local Time) from KHBI Reporting Station
Clear Clear  
Wind Chill: 73°   Ceiling: Unl
Heat Index: 73°   Visibility: 10mi
Dew Point: 29°   Wind: 5mph
Humidity: 20%   Direction: 260°W
Pressure: 29.95"   Gusts: NA
Location:  35.6015°N, 80.0858°W
Report Text: KHBI 252035Z AUTO 26004KT 10SM CLR 23/M02 A2995 RMK AO2 T02261017
Loading
Personal Weather Stations






























Interactive Weather Map
Tropical Storm Tracking
New forecast layout! Learn more

10-Day Weather Forecast

Advertisements
Track Severe Weather on mobile